Fredericksburg, TX

12:19 PM CDT on June 29, 2017 (GMT -0500)
Fredericksburg

Weather History for KT82 - January, 2014

Change the Weather History Date:

Friday, January 17, 2014

  Actual Average (KSAT) Record (KSAT)
Temperature  
Mean Temperature 44 °F -  
Max Temperature 58 °F 60 °F 82 °F (1999)
Min Temperature 29 °F 42 °F 15 °F (1930)
Degree Days  
Heating Degree Days 22    
Moisture  
Dew Point 23 °F    
Average Humidity 51    
Maximum Humidity 85    
Minimum Humidity 20    
Precipitation  
Precipitation 0.00 in - - ()
Sea Level Pressure  
Sea Level Pressure 30.27 in    
Wind  
Wind Speed 2 mph (NE)    
Max Wind Speed 13 mph    
Max Gust Speed 20 mph    
Visibility 10 miles    
Events      
Averages and records for this station are not official NWS values.
T = Trace of Precipitation, MM = Missing Value Source: NWS Daily Summary

Daily Weather History Graph

Daily Weather History Graph

Search for Another Location

Airport or City:

Trip Planner

Search our weather history database for the weather conditions in past years. The results will help you decide how hot, cold, wet, or windy it might be!

Date:

Astronomy

Jan. 17, 2014 Rise Set
Actual Time 7:32 AM CST 5:59 PM CST
Civil Twilight 7:06 AM CST 6:25 PM CST
Nautical Twilight 6:37 AM CST 6:54 PM CST
Astronomical Twilight 6:08 AM CST 7:23 PM CST
Moon 7:36 PM CST (1/17) 8:10 AM CST (1/17)
Length of Visible Light 11h 18m
Length of Day
10h 27m
Full, 98% of the Moon is Illuminated
Jan 17
Full
Jan 23
Last Quarter
Jan 30
New
Feb 6
First Quarter
Feb 14
Full

Hourly Weather History & Observations

Time (CST) Temp. Windchill Dew Point Humidity Pressure Visibility Wind Dir Wind Speed Gust Speed Precip Events Conditions
12:15 AM 46.9 °F - 30.2 °F 52% 30.21 in 10.0 mi Calm Calm - N/A   Clear
12:35 AM 41.7 °F - 30.0 °F 63% 30.21 in 10.0 mi Calm Calm - N/A   Clear
12:55 AM 40.1 °F - 30.2 °F 68% 30.21 in 10.0 mi Calm Calm - N/A   Clear
1:15 AM 41.2 °F - 29.5 °F 63% 30.21 in 10.0 mi Calm Calm - N/A   Clear
1:35 AM 39.2 °F - 30.0 °F 70% 30.22 in 10.0 mi Calm Calm - N/A   Clear
1:55 AM 39.6 °F - 29.5 °F 67% 30.22 in 10.0 mi Calm Calm - N/A   Clear
2:15 AM 36.0 °F - 29.1 °F 76% 30.23 in 10.0 mi Calm Calm - N/A   Clear
2:35 AM 31.8 °F - 27.1 °F 83% 30.24 in 10.0 mi Calm Calm - N/A   Clear
2:55 AM 35.1 °F - 28.2 °F 76% 30.24 in 10.0 mi Calm Calm - N/A   Clear
3:15 AM 34.9 °F - 29.1 °F 79% 30.24 in 10.0 mi Calm Calm - N/A   Clear
3:35 AM 34.2 °F - 28.9 °F 81% 30.25 in 10.0 mi Calm Calm - N/A   Clear
3:55 AM 33.6 °F - 28.2 °F 81% 30.25 in 10.0 mi Calm Calm - N/A   Clear
4:15 AM 33.1 °F - 27.5 °F 80% 30.25 in 10.0 mi Calm Calm - N/A   Clear
4:35 AM 32.4 °F - 27.5 °F 82% 30.25 in 10.0 mi Calm Calm - N/A   Clear
4:55 AM 32.5 °F - 27.3 °F 81% 30.26 in 10.0 mi Calm Calm - N/A   Clear
5:15 AM 32.0 °F - 27.3 °F 83% 30.26 in 10.0 mi Calm Calm - N/A   Clear
5:35 AM 31.5 °F - 26.6 °F 82% 30.26 in 10.0 mi Calm Calm - N/A   Clear
5:55 AM 30.2 °F - 26.2 °F 85% 30.28 in 10.0 mi Calm Calm - N/A   Clear
6:15 AM 30.4 °F - 26.1 °F 84% 30.28 in 10.0 mi Calm Calm - N/A   Clear
6:35 AM 30.2 °F - 25.7 °F 83% 30.29 in 10.0 mi Calm Calm - N/A   Clear
6:55 AM 30.6 °F - 25.7 °F 82% 30.29 in 10.0 mi Calm Calm - N/A   Clear
7:15 AM 31.1 °F - 25.7 °F 80% 30.30 in 10.0 mi Calm Calm - N/A   Clear
7:35 AM 30.7 °F - 25.2 °F 80% 30.31 in 10.0 mi Calm Calm - N/A   Clear
7:55 AM 29.5 °F - 25.3 °F 85% 30.31 in 10.0 mi Calm Calm - N/A   Clear
8:15 AM 31.3 °F - 25.9 °F 80% 30.32 in 10.0 mi Calm Calm - N/A   Clear
8:35 AM 33.1 °F - 27.9 °F 81% 30.32 in 10.0 mi Calm Calm - N/A   Clear
8:55 AM 38.7 °F - 28.2 °F 66% 30.33 in 10.0 mi Calm Calm - N/A   Clear
9:15 AM 46.4 °F 42.4 °F 19.8 °F 35% 30.33 in 10.0 mi NNE 8.1 mph - N/A   Clear
9:35 AM 49.3 °F - 19.0 °F 30% 30.34 in 10.0 mi NNE 8.1 mph - N/A   Clear
9:55 AM 50.9 °F - 18.5 °F 28% 30.34 in 10.0 mi NE 11.5 mph 19.6 mph N/A   Clear
10:15 AM 52.2 °F - 18.7 °F 27% 30.35 in 10.0 mi ENE 12.7 mph - N/A   Clear
10:35 AM 53.1 °F - 18.3 °F 26% 30.35 in 10.0 mi NE 11.5 mph 16.1 mph N/A   Clear
10:55 AM 53.6 °F - 16.9 °F 24% 30.35 in 10.0 mi NE 11.5 mph - N/A   Clear
11:15 AM 54.5 °F - 17.4 °F 23% 30.35 in 10.0 mi NNE 10.4 mph - N/A   Clear
11:35 AM 55.0 °F - 17.1 °F 23% 30.34 in 10.0 mi NNE 11.5 mph 17.3 mph N/A   Clear
11:55 AM 55.6 °F - 18.3 °F 23% 30.33 in 10.0 mi NNE 9.2 mph - N/A   Clear
12:15 PM 56.3 °F - 18.5 °F 23% 30.33 in 10.0 mi NE 5.8 mph 16.1 mph N/A   Clear
12:35 PM 56.5 °F - 18.9 °F 23% 30.31 in 10.0 mi NE 6.9 mph - N/A   Clear
12:55 PM 57.0 °F - 17.6 °F 21% 30.30 in 10.0 mi NNE 9.2 mph - N/A   Clear
1:15 PM 56.8 °F - 18.5 °F 22% 30.28 in 10.0 mi Calm Calm - N/A   Clear
1:35 PM 57.4 °F - 18.7 °F 22% 30.27 in 10.0 mi East 4.6 mph - N/A   Clear
1:55 PM 57.9 °F - 19.4 °F 22% 30.28 in 10.0 mi North 5.8 mph - N/A   Clear
2:15 PM 58.3 °F - 19.2 °F 22% 30.27 in 10.0 mi ENE 9.2 mph - N/A   Clear
2:35 PM 58.5 °F - 17.2 °F 20% 30.26 in 10.0 mi ESE 3.5 mph - N/A   Clear
2:55 PM 58.6 °F - 18.3 °F 21% 30.26 in 10.0 mi NNE 6.9 mph - N/A   Clear
3:15 PM 57.9 °F - 16.5 °F 20% 30.26 in 10.0 mi Calm Calm - N/A   Clear
3:35 PM 58.5 °F - 17.8 °F 21% 30.26 in 10.0 mi Calm Calm - N/A   Clear
3:55 PM 58.1 °F - 17.2 °F 20% 30.25 in 10.0 mi Calm Calm - N/A   Clear
4:15 PM 58.1 °F - 19.2 °F 22% 30.25 in 10.0 mi Calm Calm - N/A   Clear
4:35 PM 58.1 °F - 17.4 °F 20% 30.25 in 10.0 mi Calm Calm - N/A   Clear
4:55 PM 58.1 °F - 18.0 °F 21% 30.25 in 10.0 mi Calm Calm - N/A   Clear
5:15 PM 57.6 °F - 17.8 °F 21% 30.25 in 10.0 mi SSE 4.6 mph - N/A   Clear
5:35 PM 56.1 °F - 18.1 °F 23% 30.25 in 10.0 mi Calm Calm - N/A   Clear
5:55 PM 54.7 °F - 18.3 °F 24% 30.25 in 10.0 mi Calm Calm - N/A   Clear
6:15 PM 52.3 °F - 18.5 °F 26% 30.25 in 10.0 mi Calm Calm - N/A   Clear
6:35 PM 50.9 °F - 18.9 °F 28% 30.25 in 10.0 mi Calm Calm - N/A   Clear
6:55 PM 49.8 °F - 18.9 °F 29% 30.25 in 10.0 mi Calm Calm - N/A   Clear
7:15 PM 48.6 °F - 19.0 °F 31% 30.24 in 10.0 mi Calm Calm - N/A   Clear
7:35 PM 46.8 °F - 19.4 °F 34% 30.25 in 10.0 mi Calm Calm - N/A   Clear
7:55 PM 41.4 °F - 21.4 °F 45% 30.26 in 10.0 mi Calm Calm - N/A   Clear
8:15 PM 45.7 °F - 19.2 °F 35% 30.27 in 10.0 mi Calm Calm - N/A   Clear
8:35 PM 41.9 °F - 21.2 °F 44% 30.27 in 10.0 mi Calm Calm - N/A   Clear
8:55 PM 35.4 °F - 21.2 °F 56% 30.26 in 10.0 mi Calm Calm - N/A   Clear
9:15 PM 34.5 °F - 23.5 °F 64% 30.26 in 10.0 mi Calm Calm - N/A   Clear
9:35 PM 35.4 °F - 24.8 °F 65% 30.26 in 10.0 mi Calm Calm - N/A   Clear
9:55 PM 33.3 °F - 23.9 °F 69% 30.26 in 10.0 mi Calm Calm - N/A   Clear
10:15 PM 34.0 °F - 25.2 °F 70% 30.26 in 10.0 mi Calm Calm - N/A   Clear
10:35 PM 32.7 °F - 23.9 °F 70% 30.26 in 10.0 mi Calm Calm - N/A   Clear
10:55 PM 33.4 °F - 23.9 °F 68% 30.25 in 10.0 mi Calm Calm - N/A   Clear
11:15 PM 32.9 °F - 23.9 °F 69% 30.24 in 10.0 mi Calm Calm - N/A   Clear
11:35 PM 30.9 °F - 23.4 °F 74% 30.24 in 10.0 mi Calm Calm - N/A   Clear
11:55 PM 32.0 °F 28.7 °F 23.2 °F 70% 30.23 in 10.0 mi NW 3.5 mph - N/A   Clear